Alfred, New York
Current Conditions -  °F | °C
As of 7:56 PM on Friday 19 Dec 2014 (Local Time) from KELZ Reporting Station
Overcast Overcast  
Wind Chill: 10°   Ceiling: 1100
Heat Index: 22°   Visibility: 10mi
Dew Point: 17°   Wind: 12mph
Humidity: 82%   Direction: 300°WNW
Pressure: 30.16"   Gusts: NA
Location:  42.25°N, 77.79°W
Report Text: KELZ 200056Z AUTO 30010KT 10SM OVC011 M06/M08 A3016 RMK AO2 SLP245 T10561083
Loading
Personal Weather Stations






























Interactive Weather Map New forecast layout! Learn more

10-Day Weather Forecast

Advertisements
Track Severe Weather on mobile